createdAt,value
2023-05-14T00:01:20.991Z,12.06
2023-05-14T00:04:24.572Z,12.07
2023-05-14T00:07:31.363Z,12.16
2023-05-14T00:10:34.392Z,12.12
2023-05-14T00:13:37.282Z,12.08
2023-05-14T00:16:40.261Z,12.10
2023-05-14T00:19:43.530Z,12.12
2023-05-14T00:22:46.753Z,12.10
2023-05-14T00:25:51.748Z,12.11
2023-05-14T00:28:54.968Z,12.13
2023-05-14T00:31:58.969Z,12.12
2023-05-14T00:35:03.721Z,12.08
2023-05-14T00:38:07.105Z,12.08
2023-05-14T00:41:10.010Z,12.14
2023-05-14T00:44:12.976Z,12.12
2023-05-14T00:47:15.628Z,12.09
2023-05-14T00:50:19.291Z,11.94
2023-05-14T00:53:23.398Z,12.09
2023-05-14T00:56:28.001Z,12.05
2023-05-14T00:59:34.762Z,12.07
2023-05-14T01:02:38.041Z,12.02
2023-05-14T01:05:48.718Z,12.02
2023-05-14T01:08:53.376Z,11.99
2023-05-14T01:12:09.822Z,11.94
2023-05-14T01:15:19.035Z,11.84
2023-05-14T01:18:23.673Z,11.84
2023-05-14T01:21:36.617Z,11.88
2023-05-14T01:24:43.128Z,11.87
2023-05-14T01:27:51.505Z,11.91
2023-05-14T01:30:58.688Z,11.82
2023-05-14T01:34:02.977Z,11.79
2023-05-14T01:37:06.973Z,11.66
2023-05-14T01:40:11.205Z,11.61
2023-05-14T01:43:17.492Z,11.55
2023-05-14T01:46:21.907Z,11.49
2023-05-14T01:49:25.589Z,11.36
2023-05-14T01:52:30.644Z,11.34
2023-05-14T01:55:36.479Z,11.36
2023-05-14T01:58:42.644Z,11.31
2023-05-14T02:01:46.106Z,11.40
2023-05-14T02:04:48.846Z,11.36
2023-05-14T02:07:54.688Z,11.37
2023-05-14T02:10:58.517Z,11.32
2023-05-14T02:14:06.220Z,11.33
2023-05-14T02:17:10.852Z,11.33
2023-05-14T02:20:16.375Z,11.31
2023-05-14T02:23:22.037Z,11.34
2023-05-14T02:26:29.317Z,11.33
2023-05-14T02:29:33.167Z,11.33
2023-05-14T02:32:36.314Z,11.33
2023-05-14T02:35:39.514Z,11.32
2023-05-14T02:38:42.875Z,11.34
2023-05-14T02:41:45.604Z,11.36
2023-05-14T02:44:48.287Z,11.33
2023-05-14T02:47:51.585Z,11.32
2023-05-14T02:50:55.442Z,11.32
2023-05-14T02:53:59.938Z,11.33
2023-05-14T02:57:03.319Z,11.39
2023-05-14T03:00:07.640Z,11.34
2023-05-14T03:03:11.934Z,11.32
2023-05-14T03:06:15.253Z,11.30
2023-05-14T03:09:19.065Z,11.39
2023-05-14T03:12:22.315Z,11.35
2023-05-14T03:15:25.505Z,11.38
2023-05-14T03:18:31.332Z,11.34
2023-05-14T03:21:34.243Z,11.33
2023-05-14T03:24:38.607Z,11.32
2023-05-14T03:27:41.257Z,11.30
2023-05-14T03:30:44.768Z,11.30
2023-05-14T03:33:47.972Z,11.28
2023-05-14T03:36:51.482Z,11.38
2023-05-14T03:39:55.089Z,11.37
2023-05-14T03:42:58.651Z,11.39
2023-05-14T03:46:01.384Z,11.43
2023-05-14T03:49:04.287Z,11.41
2023-05-14T03:52:07.239Z,11.47
2023-05-14T03:55:11.282Z,11.56
2023-05-14T03:58:15.204Z,11.58
2023-05-14T04:01:18.478Z,11.59
2023-05-14T04:04:22.390Z,11.52
2023-05-14T04:07:24.868Z,11.64
2023-05-14T04:10:28.574Z,11.61
2023-05-14T04:13:31.968Z,11.69
2023-05-14T04:16:35.871Z,11.74
2023-05-14T04:19:40.425Z,11.71
2023-05-14T04:22:43.844Z,11.79
2023-05-14T04:25:48.061Z,11.81
2023-05-14T04:28:51.829Z,11.76
2023-05-14T04:31:54.750Z,11.69
2023-05-14T04:34:58.335Z,11.73
2023-05-14T04:38:02.038Z,11.68
2023-05-14T04:41:06.618Z,11.65
2023-05-14T04:44:11.943Z,11.75
2023-05-14T04:47:15.206Z,11.77
2023-05-14T04:50:19.487Z,11.69
2023-05-14T04:53:22.127Z,11.70
2023-05-14T04:56:25.907Z,11.79
2023-05-14T04:59:31.925Z,11.79
2023-05-14T05:02:36.592Z,11.69
2023-05-14T05:05:40.046Z,11.72
2023-05-14T05:08:44.131Z,11.59
2023-05-14T05:11:47.820Z,11.58
2023-05-14T05:14:53.678Z,11.67
2023-05-14T05:17:58.177Z,11.71
2023-05-14T05:21:01.655Z,11.59
2023-05-14T05:24:13.565Z,11.57
2023-05-14T05:27:20.815Z,11.52
2023-05-14T05:30:25.028Z,11.46
2023-05-14T05:33:35.541Z,11.41
2023-05-14T05:36:41.183Z,11.42
2023-05-14T05:39:50.046Z,11.52
2023-05-14T05:42:52.985Z,11.52
2023-05-14T05:45:55.297Z,11.50
2023-05-14T05:48:57.374Z,11.37
2023-05-14T05:52:08.306Z,11.41
2023-05-14T05:55:18.078Z,11.43
2023-05-14T05:58:21.209Z,11.56
2023-05-14T06:01:25.028Z,11.60
2023-05-14T06:04:35.100Z,11.60
2023-05-14T06:07:44.685Z,11.60
2023-05-14T06:10:51.052Z,11.60
2023-05-14T06:13:54.758Z,11.51
2023-05-14T06:17:07.907Z,11.40
2023-05-14T06:20:17.856Z,11.21
2023-05-14T06:23:21.039Z,11.10
2023-05-14T06:26:26.642Z,11.10
2023-05-14T06:29:30.898Z,11.04
2023-05-14T06:32:34.085Z,10.94
2023-05-14T06:35:40.364Z,10.94
2023-05-14T06:38:51.252Z,10.89
2023-05-14T06:41:54.246Z,10.90
2023-05-14T06:44:56.614Z,10.85
2023-05-14T06:48:03.847Z,10.76
2023-05-14T06:51:06.610Z,10.87
2023-05-14T06:54:10.439Z,10.95
2023-05-14T06:57:12.895Z,10.97
2023-05-14T07:00:15.623Z,11.03
2023-05-14T07:03:21.246Z,11.09
2023-05-14T07:06:23.817Z,11.06
2023-05-14T07:09:30.496Z,11.02
2023-05-14T07:12:32.982Z,11.13
2023-05-14T07:15:50.717Z,11.29
2023-05-14T07:18:57.626Z,11.40
2023-05-14T07:22:00.793Z,11.46
2023-05-14T07:25:10.432Z,11.51
2023-05-14T07:28:15.163Z,11.63
2023-05-14T07:31:20.269Z,11.67
2023-05-14T07:34:26.159Z,11.85
2023-05-14T07:37:35.817Z,12.13
2023-05-14T07:40:38.704Z,12.22
2023-05-14T07:43:48.675Z,12.21
2023-05-14T07:46:51.194Z,12.27
2023-05-14T07:49:57.076Z,12.26
2023-05-14T07:53:06.534Z,12.39
2023-05-14T07:56:11.894Z,12.54
2023-05-14T07:59:16.101Z,12.65
2023-05-14T08:02:18.890Z,12.72
2023-05-14T08:05:26.086Z,12.64
2023-05-14T08:08:43.634Z,12.54
2023-05-14T08:11:47.032Z,12.63
2023-05-14T08:14:55.138Z,12.66
2023-05-14T08:17:59.192Z,12.53
2023-05-14T08:21:03.546Z,12.52
2023-05-14T08:24:10.671Z,12.52
2023-05-14T08:27:14.495Z,12.24
2023-05-14T08:30:17.066Z,12.22
2023-05-14T08:33:21.466Z,12.14
2023-05-14T08:36:24.179Z,12.07
2023-05-14T08:39:27.050Z,12.09
2023-05-14T08:42:29.608Z,12.07
2023-05-14T08:45:34.886Z,11.95
2023-05-14T08:48:38.141Z,11.96
2023-05-14T08:51:41.533Z,12.09
2023-05-14T08:54:45.695Z,12.12
2023-05-14T08:57:50.593Z,12.05
2023-05-14T09:00:54.276Z,12.00
2023-05-14T09:03:57.312Z,12.02
2023-05-14T09:07:03.646Z,12.12
2023-05-14T09:10:09.049Z,12.12
2023-05-14T09:13:11.547Z,12.11
2023-05-14T09:16:14.301Z,12.19
2023-05-14T09:19:19.712Z,12.05
2023-05-14T09:22:24.492Z,11.98
2023-05-14T09:25:28.996Z,11.97
2023-05-14T09:28:34.706Z,12.01
2023-05-14T09:31:42.344Z,12.06
2023-05-14T09:34:52.383Z,12.06
2023-05-14T09:37:55.267Z,12.18
2023-05-14T09:40:58.525Z,12.05
2023-05-14T09:44:04.718Z,12.09
2023-05-14T09:47:09.719Z,12.12
2023-05-14T09:50:11.769Z,12.10
2023-05-14T09:53:15.236Z,12.14
2023-05-14T09:56:17.693Z,12.21
2023-05-14T09:59:19.982Z,12.39
2023-05-14T10:02:23.962Z,12.51
2023-05-14T10:05:28.049Z,12.60
2023-05-14T10:08:37.097Z,12.56
2023-05-14T10:11:42.655Z,12.57
2023-05-14T10:14:49.878Z,12.55
2023-05-14T10:17:56.162Z,12.45
2023-05-14T10:21:04.657Z,12.42
2023-05-14T10:24:08.375Z,12.43
2023-05-14T10:27:11.518Z,12.42
2023-05-14T10:30:14.645Z,12.36
2023-05-14T10:33:18.923Z,12.39
2023-05-14T10:36:21.978Z,12.45
2023-05-14T10:39:40.168Z,12.50
2023-05-14T10:42:46.680Z,12.41
2023-05-14T10:45:48.968Z,12.34
2023-05-14T10:48:51.039Z,12.16
2023-05-14T10:51:55.686Z,12.16
2023-05-14T10:55:09.916Z,12.16
2023-05-14T10:58:12.423Z,12.31
2023-05-14T11:01:17.714Z,12.31
2023-05-14T11:04:24.011Z,12.52
2023-05-14T11:07:34.579Z,12.55
2023-05-14T11:10:39.336Z,12.59
2023-05-14T11:13:42.109Z,12.60
2023-05-14T11:16:44.499Z,12.52
2023-05-14T11:19:48.831Z,12.51
2023-05-14T11:22:52.688Z,12.50
2023-05-14T11:25:56.873Z,12.50
2023-05-14T11:28:59.334Z,12.42
2023-05-14T11:32:02.957Z,12.41
2023-05-14T11:35:06.147Z,12.37
2023-05-14T11:38:09.327Z,12.33
2023-05-14T11:41:14.793Z,12.34
2023-05-14T11:44:17.758Z,12.35
2023-05-14T11:47:21.775Z,12.38
2023-05-14T11:50:24.974Z,12.33
2023-05-14T11:53:28.672Z,12.29
2023-05-14T11:56:30.704Z,12.22
2023-05-14T11:59:32.865Z,12.21
2023-05-14T12:02:35.056Z,12.24
2023-05-14T12:05:40.487Z,12.18
2023-05-14T12:08:42.625Z,12.07
2023-05-14T12:11:46.411Z,12.01
2023-05-14T12:14:49.057Z,12.04
2023-05-14T12:17:51.970Z,11.97
2023-05-14T12:20:54.252Z,11.94
2023-05-14T12:24:00.228Z,11.90
2023-05-14T12:27:02.500Z,11.82
2023-05-14T12:33:10.585Z,11.78
2023-05-14T12:36:21.677Z,11.76
2023-05-14T12:39:25.069Z,11.74
2023-05-14T12:42:27.414Z,11.80
2023-05-14T12:45:30.079Z,11.77
2023-05-14T12:48:32.140Z,11.75
2023-05-14T12:51:34.295Z,11.66
2023-05-14T12:54:36.323Z,11.66
2023-05-14T12:57:39.713Z,11.60
2023-05-14T13:00:41.948Z,11.63
2023-05-14T13:03:43.908Z,11.61
2023-05-14T13:06:45.831Z,11.60
2023-05-14T13:09:47.796Z,11.66
2023-05-14T13:12:50.672Z,11.66
2023-05-14T13:15:53.430Z,11.65
2023-05-14T13:18:55.702Z,11.68
2023-05-14T13:21:57.797Z,11.72
2023-05-14T13:24:59.970Z,11.79
2023-05-14T13:28:02.003Z,11.78
2023-05-14T13:31:07.124Z,11.73
2023-05-14T13:34:10.254Z,11.71
2023-05-14T13:37:12.466Z,11.69
2023-05-14T13:40:14.487Z,11.71
2023-05-14T13:43:17.016Z,11.74
2023-05-14T13:46:18.994Z,11.73
2023-05-14T13:49:21.363Z,11.72
2023-05-14T13:52:23.251Z,11.72
2023-05-14T13:55:25.315Z,11.72
2023-05-14T13:58:27.562Z,11.74
2023-05-14T14:01:31.117Z,11.82
2023-05-14T14:04:33.335Z,11.83
2023-05-14T14:07:35.695Z,11.92
2023-05-14T14:10:39.494Z,12.00
2023-05-14T14:13:41.597Z,12.02
2023-05-14T14:16:43.642Z,12.04
2023-05-14T14:19:45.832Z,12.05
2023-05-14T14:22:47.724Z,12.09
2023-05-14T14:25:49.825Z,12.09
2023-05-14T14:28:51.717Z,12.12
2023-05-14T14:31:54.023Z,12.08
2023-05-14T14:34:55.999Z,12.17
2023-05-14T14:37:57.880Z,12.18
2023-05-14T14:41:00.053Z,12.10
2023-05-14T14:44:02.827Z,12.03
2023-05-14T14:47:04.939Z,12.04
2023-05-14T14:50:07.467Z,12.14
2023-05-14T14:53:09.760Z,12.14
2023-05-14T14:56:11.858Z,11.89
2023-05-14T14:59:13.792Z,11.74
2023-05-14T15:02:16.044Z,11.82
2023-05-14T15:05:17.982Z,11.89
2023-05-14T15:08:23.196Z,11.91
2023-05-14T15:11:25.181Z,11.85
2023-05-14T15:14:27.169Z,11.80
2023-05-14T15:17:29.231Z,11.81
2023-05-14T15:20:31.241Z,11.74
2023-05-14T15:23:33.191Z,11.73
2023-05-14T15:26:35.212Z,11.67
2023-05-14T15:29:38.693Z,11.66
2023-05-14T15:32:41.376Z,11.61
2023-05-14T15:35:43.314Z,11.61
2023-05-14T15:38:45.503Z,11.56
2023-05-14T15:41:47.554Z,11.56
2023-05-14T15:44:49.597Z,11.52
2023-05-14T15:47:51.657Z,11.50
2023-05-14T15:50:53.724Z,11.45
2023-05-14T15:53:55.677Z,11.40
2023-05-14T15:56:58.603Z,11.38
2023-05-14T16:00:00.699Z,11.49
2023-05-14T16:03:02.892Z,11.53
2023-05-14T16:06:05.032Z,11.55
2023-05-14T16:09:06.887Z,11.54
2023-05-14T16:12:09.303Z,11.56
2023-05-14T16:15:11.417Z,11.60
2023-05-14T16:18:13.373Z,11.56
2023-05-14T16:21:15.579Z,11.54
2023-05-14T16:24:20.692Z,11.55
2023-05-14T16:27:22.723Z,11.54
2023-05-14T16:30:24.993Z,11.51
2023-05-14T16:33:27.384Z,11.52
2023-05-14T16:36:31.525Z,11.53
2023-05-14T16:39:33.521Z,11.49
2023-05-14T16:42:35.688Z,11.54
2023-05-14T16:45:37.878Z,11.59
2023-05-14T16:48:39.978Z,11.59
2023-05-14T16:51:43.240Z,11.60
2023-05-14T16:54:45.128Z,11.58
2023-05-14T16:57:47.007Z,11.58
2023-05-14T17:00:48.871Z,11.62
2023-05-14T17:03:50.697Z,11.58
2023-05-14T17:06:52.741Z,11.64
2023-05-14T17:09:54.857Z,11.59
2023-05-14T17:12:56.874Z,11.66
2023-05-14T17:15:58.968Z,11.74
2023-05-14T17:19:01.021Z,11.76
2023-05-14T17:22:05.798Z,11.72
2023-05-14T17:25:08.143Z,11.75
2023-05-14T17:28:10.031Z,11.68
2023-05-14T17:31:11.938Z,11.80
2023-05-14T17:34:14.075Z,11.81
2023-05-14T17:37:16.193Z,11.79
2023-05-14T17:40:19.426Z,11.83
2023-05-14T17:43:21.254Z,11.79
2023-05-14T17:46:23.372Z,11.77
2023-05-14T17:49:25.380Z,11.83
2023-05-14T17:52:27.269Z,11.75
2023-05-14T17:55:29.173Z,11.75
2023-05-14T17:58:31.001Z,11.72
2023-05-14T18:01:33.783Z,11.74
2023-05-14T18:04:35.700Z,11.78
2023-05-14T18:07:37.601Z,11.68
2023-05-14T18:10:39.429Z,11.66
2023-05-14T18:13:41.279Z,11.60
2023-05-14T18:16:43.515Z,11.67
2023-05-14T18:19:45.527Z,11.75
2023-05-14T18:22:49.481Z,11.78
2023-05-14T18:25:51.681Z,11.80
2023-05-14T18:28:53.607Z,11.85
2023-05-14T18:31:55.644Z,11.87
2023-05-14T18:34:57.463Z,11.90
2023-05-14T18:37:59.475Z,11.94
2023-05-14T18:41:01.506Z,11.86
2023-05-14T18:44:03.490Z,11.85
2023-05-14T18:47:05.700Z,11.84
2023-05-14T18:50:08.200Z,11.84
2023-05-14T18:53:10.962Z,11.81
2023-05-14T18:56:12.912Z,11.80
2023-05-14T18:59:14.811Z,11.84
2023-05-14T19:02:16.845Z,11.83
2023-05-14T19:05:19.366Z,11.89
2023-05-14T19:08:21.248Z,11.89
2023-05-14T19:11:23.272Z,11.78
2023-05-14T19:14:25.237Z,11.83
2023-05-14T19:17:29.494Z,11.87
2023-05-14T19:20:31.445Z,11.90
2023-05-14T19:23:33.472Z,11.99
2023-05-14T19:26:35.358Z,11.99
2023-05-14T19:29:37.160Z,11.96
2023-05-14T19:32:39.040Z,11.97
2023-05-14T19:35:40.979Z,11.97
2023-05-14T19:38:43.078Z,12.00
2023-05-14T19:41:45.083Z,12.02
2023-05-14T19:44:46.908Z,12.04
2023-05-14T19:47:48.870Z,12.01
2023-05-14T19:50:51.899Z,12.03
2023-05-14T19:53:53.771Z,12.00
2023-05-14T19:56:55.738Z,12.00
2023-05-14T19:59:59.201Z,12.06
2023-05-14T20:03:02.240Z,12.06
2023-05-14T20:06:06.701Z,12.06
2023-05-14T20:09:08.545Z,12.09
2023-05-14T20:12:10.939Z,12.03
2023-05-14T20:15:12.822Z,12.03
2023-05-14T20:18:16.141Z,11.99
2023-05-14T20:21:18.284Z,11.98
2023-05-14T20:24:20.272Z,12.06
2023-05-14T20:27:22.168Z,12.02
2023-05-14T20:30:24.466Z,12.05
2023-05-14T20:33:28.775Z,12.07
2023-05-14T20:36:34.962Z,12.11
2023-05-14T20:39:36.834Z,12.14
2023-05-14T20:42:38.819Z,12.13
2023-05-14T20:45:40.948Z,12.09
2023-05-14T20:48:42.886Z,12.08
2023-05-14T20:51:46.386Z,12.12
2023-05-14T20:54:51.333Z,12.09
2023-05-14T20:57:53.255Z,11.97
2023-05-14T21:00:55.411Z,12.01
2023-05-14T21:03:57.608Z,12.02
2023-05-14T21:06:59.834Z,12.02
2023-05-14T21:10:01.913Z,12.02
2023-05-14T21:13:03.918Z,12.05
2023-05-14T21:16:06.112Z,12.04
2023-05-14T21:19:08.016Z,12.06
2023-05-14T21:22:09.920Z,12.07
2023-05-14T21:25:11.960Z,12.06
2023-05-14T21:28:13.882Z,12.03
2023-05-14T21:31:16.021Z,12.09
2023-05-14T21:34:18.154Z,12.07
2023-05-14T21:37:26.139Z,12.03
2023-05-14T21:40:30.624Z,12.05
2023-05-14T21:43:32.656Z,12.03
2023-05-14T21:46:34.608Z,12.04
2023-05-14T21:49:36.801Z,12.06
2023-05-14T21:52:39.631Z,12.04
2023-05-14T21:55:41.697Z,12.06
2023-05-14T21:58:45.141Z,12.02
2023-05-14T22:02:05.419Z,11.98
2023-05-14T22:05:08.092Z,12.00
2023-05-14T22:08:10.997Z,11.98
2023-05-14T22:11:13.066Z,11.95
2023-05-14T22:14:15.340Z,12.01
2023-05-14T22:17:17.308Z,12.01
2023-05-14T22:20:19.266Z,12.08
2023-05-14T22:23:21.434Z,12.11
2023-05-14T22:26:23.369Z,12.09
2023-05-14T22:29:26.789Z,12.12
2023-05-14T22:32:28.789Z,12.10
2023-05-14T22:35:31.023Z,12.16
2023-05-14T22:38:35.955Z,12.13
2023-05-14T22:41:37.905Z,12.13
2023-05-14T22:44:39.789Z,12.16
2023-05-14T22:47:41.765Z,12.16
2023-05-14T22:50:44.717Z,12.17
2023-05-14T22:53:47.571Z,12.22
2023-05-14T22:56:50.008Z,12.20
2023-05-14T22:59:52.155Z,12.19
2023-05-14T23:02:54.117Z,12.19
2023-05-14T23:05:56.015Z,12.19
2023-05-14T23:08:58.004Z,12.19
2023-05-14T23:11:59.987Z,12.23
2023-05-14T23:15:02.214Z,12.22
2023-05-14T23:18:04.413Z,12.20
2023-05-14T23:21:06.596Z,12.25
2023-05-14T23:24:10.805Z,12.22
2023-05-14T23:27:13.954Z,12.20
2023-05-14T23:30:15.846Z,12.22
2023-05-14T23:33:18.262Z,12.19
2023-05-14T23:36:21.638Z,12.23
2023-05-14T23:39:23.704Z,12.21
2023-05-14T23:42:26.049Z,12.23
2023-05-14T23:45:28.146Z,12.21
2023-05-14T23:48:30.173Z,12.22
2023-05-14T23:51:32.182Z,12.22
2023-05-14T23:54:35.372Z,12.20
2023-05-14T23:57:37.726Z,12.23
